Forest Grove, Pennsylvania
Current Conditions -  °F | °C
As of 10:54 AM on Sunday 23 Nov 2014 (Local Time) from KDYL Reporting Station
Few Clouds Few Clouds  
Wind Chill: 48°   Ceiling: Unl
Heat Index: 48°   Visibility: 10mi
Dew Point: 24°   Wind: 0mph
Humidity: 39%   Direction: NA
Pressure: 30.18"   Gusts: NA
Location:  40.29°N, 75.05°W
Report Text: KDYL 231554Z AUTO 00000KT 10SM FEW100 09/M04 A3018 RMK AO2 SLP222 T00891044
Loading
Personal Weather Stations






























Interactive Weather Map New forecast layout! Learn more

10-Day Weather Forecast

Advertisements
Track Severe Weather on mobile